(°C)
26°
27°
27°
28°
28°
27°
26°
(°C)
25°
26°
27°
27°
27°
26°
24°
I
I
IJI
IJI
IJI
IJI
IJI
(km/h)
14-22
18-27
19-30
20-31
20-32
21-33
20-35
(mm)
0
0
0
0
0
0
0
(%)
0
0
0
0
0
0
0

Podizanje Sunca

/ 66°
sun-icon
UV 9
06:41
21:32
Pun mesec (176°)
21:38
06:05

METAR za Alcantarilla (LERI)

Vreme Uslovi Temperatura/
Tačka rose
Vetar Vidljivost Prognoza Oblaci Pritisak Promena Neobrađeno
VFR 26°C / 14°C 50º variable 340º to 100º 7kt >10km - Few Clouds 3300ft 1021 No Significant change LERI 241000Z 05007KT 340V100 9999 FEW033 26/14 Q1021 NOSIG
VFR 25°C / 14°C 70º variable 360º to 120º 5kt >10km - Few Clouds 3200ft 1021 No Significant change LERI 240930Z 07005KT 360V120 9999 FEW032 25/14 Q1021 NOSIG
VFR 25°C / 14°C 50º variable 010º to 120º 7kt >10km - Few Clouds 3200ft 1021 No Significant change LERI 240900Z 05007KT 010V120 9999 FEW032 25/14 Q1021 NOSIG
VFR 24°C / 14°C 40º variable 300º to 110º 3kt >10km - Few Clouds 3000ft 1021 No Significant change LERI 240830Z 04003KT 300V110 9999 FEW030 24/14 Q1021 NOSIG
VFR 23°C / 15°C variable 2kt >10km - Few Clouds 3000ft 1021 No Significant change LERI 240800Z VRB02KT 9999 FEW030 23/15 Q1021 NOSIG
VFR 22°C / 17°C variable 0kt >10km - Few Clouds 2800ft 1020 No Significant change LERI 240730Z 00000KT 9999 FEW028 22/17 Q1020 NOSIG
VFR 22°C / 17°C variable 1kt >10km - Few Clouds 2800ft 1020 No Significant change LERI 240700Z VRB01KT 9999 FEW028 22/17 Q1020 NOSIG
VFR 21°C / 17°C 210º 1kt >10km - Few Clouds 2800ft 1020 No Significant change LERI 240630Z 21001KT 9999 FEW028 21/17 Q1020 NOSIG
VFR 19°C / 17°C variable 0kt >10km - Few Clouds 2800ft 1020 No Significant change LERI 240600Z 00000KT 9999 FEW028 19/17 Q1020 NOSIG
VFR 25°C / 16°C 120º 11kt >10km - Scattered Clouds 3500ft 1017 No Significant change LERI 231800Z 12011KT 9999 SCT035 25/16 Q1017 NOSIG
VFR 26°C / 16°C 130º 11kt >10km - Few Clouds 3800ft 1016 No Significant change LERI 231730Z 13011KT 9999 FEW038 26/16 Q1016 NOSIG
VFR 26°C / 16°C 120º variable 100º to 160º 11kt >10km - Few Clouds 3800ft 1016 No Significant change LERI 231700Z 12011KT 100V160 9999 FEW038 26/16 Q1016 NOSIG
VFR 27°C / 15°C 130º variable 100º to 170º 12kt >10km - Scattered Clouds 4500ft 1016 No Significant change LERI 231630Z 13012KT 100V170 9999 SCT045 27/15 Q1016 NOSIG
VFR 27°C / 15°C 120º variable 100º to 170º 13kt >10km - Few Clouds 4500ft 1016 No Significant change LERI 231600Z 12013KT 100V170 9999 FEW045 27/15 Q1016 NOSIG
VFR 27°C / 15°C 130º variable 100º to 170º 13kt >10km - Few Clouds 4500ft 1016 No Significant change LERI 231530Z 13013KT 100V170 9999 FEW045 27/15 Q1016 NOSIG
VFR 28°C / 15°C 130º variable 100º to 160º 11kt >10km - Few Clouds 4500ft 1016 No Significant change LERI 231500Z 13011KT 100V160 9999 FEW045 28/15 Q1016 NOSIG
VFR 28°C / 15°C 140º variable 100º to 170º 12kt >10km - Few Clouds 5000ft 1016 No Significant change LERI 231430Z 14012KT 100V170 9999 FEW050 28/15 Q1016 NOSIG
VFR 28°C / 15°C 120º variable 050º to 160º 11kt >10km - Few Clouds 5000ft 1015 No Significant change LERI 231400Z 12011KT 050V160 9999 FEW050 28/15 Q1015 NOSIG
VFR 28°C / 14°C 90º variable 050º to 150º 9kt >10km - Few Clouds 5000ft 1015 No Significant change LERI 231330Z 09009KT 050V150 9999 FEW050 28/14 Q1015 NOSIG
VFR 28°C / 14°C 130º variable 100º to 170º 10kt >10km - Few Clouds 5000ft 1015 No Significant change LERI 231300Z 13010KT 100V170 9999 FEW050 28/14 Q1015 NOSIG
VFR 28°C / 14°C 110º variable 070º to 150º 10kt >10km - Scattered Clouds 5000ft 1016 No Significant change LERI 231230Z 11010KT 070V150 9999 SCT050 28/14 Q1016 NOSIG
VFR 28°C / 15°C 90º variable 050º to 160º 7kt >10km - Scattered Clouds 5000ft 1016 No Significant change LERI 231200Z 09007KT 050V160 9999 SCT050 28/15 Q1016 NOSIG
VFR 28°C / 15°C 100º variable 060º to 150º 6kt >10km - Scattered Clouds 4500ft 1016 No Significant change LERI 231130Z 10006KT 060V150 9999 SCT045 28/15 Q1016 NOSIG
VFR 27°C / 14°C 90º variable 360º to 160º 6kt >10km - Scattered Clouds 4500ft 1016 No Significant change LERI 231100Z 09006KT 360V160 9999 SCT045 27/14 Q1016 NOSIG

VFR

26°C / 14°C

[Više]
Vetar 50º variable 340º to 100º 7kt
Vidljivost >10km
Prognoza -
Oblaci Few Clouds 3300ft
Pritisak 1021
Promena No Significant change
Neobrađeno LERI 241000Z 05007KT 340V100 9999 FEW033 26/14 Q1021 NOSIG

VFR

25°C / 14°C

[Više]
Vetar 70º variable 360º to 120º 5kt
Vidljivost >10km
Prognoza -
Oblaci Few Clouds 3200ft
Pritisak 1021
Promena No Significant change
Neobrađeno LERI 240930Z 07005KT 360V120 9999 FEW032 25/14 Q1021 NOSIG

VFR

25°C / 14°C

[Više]
Vetar 50º variable 010º to 120º 7kt
Vidljivost >10km
Prognoza -
Oblaci Few Clouds 3200ft
Pritisak 1021
Promena No Significant change
Neobrađeno LERI 240900Z 05007KT 010V120 9999 FEW032 25/14 Q1021 NOSIG

VFR

24°C / 14°C

[Više]
Vetar 40º variable 300º to 110º 3kt
Vidljivost >10km
Prognoza -
Oblaci Few Clouds 3000ft
Pritisak 1021
Promena No Significant change
Neobrađeno LERI 240830Z 04003KT 300V110 9999 FEW030 24/14 Q1021 NOSIG

VFR

23°C / 15°C

[Više]
Vetar variable 2kt
Vidljivost >10km
Prognoza -
Oblaci Few Clouds 3000ft
Pritisak 1021
Promena No Significant change
Neobrađeno LERI 240800Z VRB02KT 9999 FEW030 23/15 Q1021 NOSIG

VFR

22°C / 17°C

[Više]
Vetar variable 0kt
Vidljivost >10km
Prognoza -
Oblaci Few Clouds 2800ft
Pritisak 1020
Promena No Significant change
Neobrađeno LERI 240730Z 00000KT 9999 FEW028 22/17 Q1020 NOSIG

VFR

22°C / 17°C

[Više]
Vetar variable 1kt
Vidljivost >10km
Prognoza -
Oblaci Few Clouds 2800ft
Pritisak 1020
Promena No Significant change
Neobrađeno LERI 240700Z VRB01KT 9999 FEW028 22/17 Q1020 NOSIG

VFR

21°C / 17°C

[Više]
Vetar 210º 1kt
Vidljivost >10km
Prognoza -
Oblaci Few Clouds 2800ft
Pritisak 1020
Promena No Significant change
Neobrađeno LERI 240630Z 21001KT 9999 FEW028 21/17 Q1020 NOSIG

VFR

19°C / 17°C

[Više]
Vetar variable 0kt
Vidljivost >10km
Prognoza -
Oblaci Few Clouds 2800ft
Pritisak 1020
Promena No Significant change
Neobrađeno LERI 240600Z 00000KT 9999 FEW028 19/17 Q1020 NOSIG

VFR

25°C / 16°C

[Više]
Vetar 120º 11kt
Vidljivost >10km
Prognoza -
Oblaci Scattered Clouds 3500ft
Pritisak 1017
Promena No Significant change
Neobrađeno LERI 231800Z 12011KT 9999 SCT035 25/16 Q1017 NOSIG

VFR

26°C / 16°C

[Više]
Vetar 130º 11kt
Vidljivost >10km
Prognoza -
Oblaci Few Clouds 3800ft
Pritisak 1016
Promena No Significant change
Neobrađeno LERI 231730Z 13011KT 9999 FEW038 26/16 Q1016 NOSIG

VFR

26°C / 16°C

[Više]
Vetar 120º variable 100º to 160º 11kt
Vidljivost >10km
Prognoza -
Oblaci Few Clouds 3800ft
Pritisak 1016
Promena No Significant change
Neobrađeno LERI 231700Z 12011KT 100V160 9999 FEW038 26/16 Q1016 NOSIG

VFR

27°C / 15°C

[Više]
Vetar 130º variable 100º to 170º 12kt
Vidljivost >10km
Prognoza -
Oblaci Scattered Clouds 4500ft
Pritisak 1016
Promena No Significant change
Neobrađeno LERI 231630Z 13012KT 100V170 9999 SCT045 27/15 Q1016 NOSIG

VFR

27°C / 15°C

[Više]
Vetar 120º variable 100º to 170º 13kt
Vidljivost >10km
Prognoza -
Oblaci Few Clouds 4500ft
Pritisak 1016
Promena No Significant change
Neobrađeno LERI 231600Z 12013KT 100V170 9999 FEW045 27/15 Q1016 NOSIG

VFR

27°C / 15°C

[Više]
Vetar 130º variable 100º to 170º 13kt
Vidljivost >10km
Prognoza -
Oblaci Few Clouds 4500ft
Pritisak 1016
Promena No Significant change
Neobrađeno LERI 231530Z 13013KT 100V170 9999 FEW045 27/15 Q1016 NOSIG

VFR

28°C / 15°C

[Više]
Vetar 130º variable 100º to 160º 11kt
Vidljivost >10km
Prognoza -
Oblaci Few Clouds 4500ft
Pritisak 1016
Promena No Significant change
Neobrađeno LERI 231500Z 13011KT 100V160 9999 FEW045 28/15 Q1016 NOSIG

VFR

28°C / 15°C

[Više]
Vetar 140º variable 100º to 170º 12kt
Vidljivost >10km
Prognoza -
Oblaci Few Clouds 5000ft
Pritisak 1016
Promena No Significant change
Neobrađeno LERI 231430Z 14012KT 100V170 9999 FEW050 28/15 Q1016 NOSIG

VFR

28°C / 15°C

[Više]
Vetar 120º variable 050º to 160º 11kt
Vidljivost >10km
Prognoza -
Oblaci Few Clouds 5000ft
Pritisak 1015
Promena No Significant change
Neobrađeno LERI 231400Z 12011KT 050V160 9999 FEW050 28/15 Q1015 NOSIG

VFR

28°C / 14°C

[Više]
Vetar 90º variable 050º to 150º 9kt
Vidljivost >10km
Prognoza -
Oblaci Few Clouds 5000ft
Pritisak 1015
Promena No Significant change
Neobrađeno LERI 231330Z 09009KT 050V150 9999 FEW050 28/14 Q1015 NOSIG

VFR

28°C / 14°C

[Više]
Vetar 130º variable 100º to 170º 10kt
Vidljivost >10km
Prognoza -
Oblaci Few Clouds 5000ft
Pritisak 1015
Promena No Significant change
Neobrađeno LERI 231300Z 13010KT 100V170 9999 FEW050 28/14 Q1015 NOSIG

VFR

28°C / 14°C

[Više]
Vetar 110º variable 070º to 150º 10kt
Vidljivost >10km
Prognoza -
Oblaci Scattered Clouds 5000ft
Pritisak 1016
Promena No Significant change
Neobrađeno LERI 231230Z 11010KT 070V150 9999 SCT050 28/14 Q1016 NOSIG

VFR

28°C / 15°C

[Više]
Vetar 90º variable 050º to 160º 7kt
Vidljivost >10km
Prognoza -
Oblaci Scattered Clouds 5000ft
Pritisak 1016
Promena No Significant change
Neobrađeno LERI 231200Z 09007KT 050V160 9999 SCT050 28/15 Q1016 NOSIG

VFR

28°C / 15°C

[Više]
Vetar 100º variable 060º to 150º 6kt
Vidljivost >10km
Prognoza -
Oblaci Scattered Clouds 4500ft
Pritisak 1016
Promena No Significant change
Neobrađeno LERI 231130Z 10006KT 060V150 9999 SCT045 28/15 Q1016 NOSIG

VFR

27°C / 14°C

[Više]
Vetar 90º variable 360º to 160º 6kt
Vidljivost >10km
Prognoza -
Oblaci Scattered Clouds 4500ft
Pritisak 1016
Promena No Significant change
Neobrađeno LERI 231100Z 09006KT 360V160 9999 SCT045 27/14 Q1016 NOSIG

TAF za Alcantarilla (LERI)

From till


Maximum Temperature 30ºC on . Minimum Temperature 20ºC on .
From till Wind 350º 4kt. Visibility 10km or more. Few Clouds 3000ft.
Becoming from till Wind 100º 10kt. Visibility 10km or more. Few Clouds 3000ft.
With 30% probability, Temporarly from till Wind 100º 10kt. Gust 20kt.
Becoming from till Wind variable 3kt. Visibility 10km or more. Few Clouds 3000ft.

Neobrađeno: TAF LERI 240500Z 2406/2506 35004KT 9999 FEW030 TX30/2414Z TN20/2505Z BECMG 2408/2410 10010KT PROB30 TEMPO 2412/2418 10010G20KT BECMG 2418/2421 VRB03KT

Trenutni satelitski snimci i slike kiše za Alcantarilla, Шпанија

Marker lokacije postavljen je na Alcantarilla. [Više]

Satelitski snimci u realnom vremenu kombinuju vidljivu svetlost tokom dana sa infracrvenim zračenjem tokom noći. Noću slika nije tamna jer infracrveno zračenje može otkriti temperaturne razlike. Nažalost, niski oblaci i magla teško se mogu razlikovati od temperature zemlje tako da mogu biti skoro nevidljivi tokom noći. Meteosat satelitski snimci za Evropu se ažuriraju u realnom vremenu na svakih 5 minuta. Slnimci GOES-16/GOES-17 (Severna i Južna Amerika) and Himawari (Azia) ažuriraju se na svakih 10 minuta.

Padavine su procenjene na osnovu radara i satelita. U noćnim uslovima satelitske procene padavina su manje precizne od dnevnih. Narandžasti preseci obeležavaju mesta gde je munja otkrivena (preko Evropa).

Autorsko pravo 2021 EUMETSAT / meteoblue. Podaci za munje obezbeđeni od nowcast.

Radar za Alcantarilla

Marker lokacije postavljen je na Alcantarilla. Ova animacija prikazuje radar padavina za poslednjih 1 sati. Moguće je da rominjanje i slab sneg ne budu vidljivi na ovom radaru. Intezitet padavina je predstavljen bojama koje varijaju od svetlo plave do jako ljubičaste.
Radar data source: AEMET.

Aktuelne vremenske prilike i upozorenja

EUMETNET – MeteoAlarm

pictomap

Izvor: AEMET

Vreme kašnjenja između ove web stranice i www.meteoalarm.eu web stranice je moguće, za najnovije informacije o nivou upozorenja koja su izdata od strane Republičkog Hidrometeorološkog Zavoda molimo Vas da koristite www.meteoalarm.eu.